sensor_id;sensor_type;location;lat;lon;timestamp;temperature;humidity
57106;DHT22;62662;56.788;23.942;2022-08-25T00:00:09;20.40;99.90
57106;DHT22;62662;56.788;23.942;2022-08-25T00:02:37;20.50;99.90
57106;DHT22;62662;56.788;23.942;2022-08-25T00:05:04;20.40;99.90
57106;DHT22;62662;56.788;23.942;2022-08-25T00:07:32;20.50;99.90
57106;DHT22;62662;56.788;23.942;2022-08-25T00:09:59;20.40;99.90
57106;DHT22;62662;56.788;23.942;2022-08-25T00:12:26;20.40;99.90
57106;DHT22;62662;56.788;23.942;2022-08-25T00:14:53;20.40;99.90
57106;DHT22;62662;56.788;23.942;2022-08-25T00:17:21;20.40;99.90
57106;DHT22;62662;56.788;23.942;2022-08-25T00:19:48;20.40;99.90
57106;DHT22;62662;56.788;23.942;2022-08-25T00:22:15;20.40;99.90
57106;DHT22;62662;56.788;23.942;2022-08-25T00:24:42;20.40;99.90
57106;DHT22;62662;56.788;23.942;2022-08-25T00:27:09;20.40;99.90
57106;DHT22;62662;56.788;23.942;2022-08-25T00:29:38;20.40;99.90
57106;DHT22;62662;56.788;23.942;2022-08-25T00:32:05;20.40;99.90
57106;DHT22;62662;56.788;23.942;2022-08-25T00:34:34;20.40;99.90
57106;DHT22;62662;56.788;23.942;2022-08-25T00:37:05;20.40;99.90
57106;DHT22;62662;56.788;23.942;2022-08-25T00:39:33;20.40;99.90
57106;DHT22;62662;56.788;23.942;2022-08-25T00:42:00;20.40;99.90
57106;DHT22;62662;56.788;23.942;2022-08-25T00:44:29;20.40;99.90
57106;DHT22;62662;56.788;23.942;2022-08-25T00:46:58;20.40;99.90
57106;DHT22;62662;56.788;23.942;2022-08-25T00:49:35;20.50;99.90
57106;DHT22;62662;56.788;23.942;2022-08-25T00:52:04;20.50;99.90
57106;DHT22;62662;56.788;23.942;2022-08-25T00:54:56;20.50;99.90
57106;DHT22;62662;56.788;23.942;2022-08-25T00:57:36;20.40;99.90
57106;DHT22;62662;56.788;23.942;2022-08-25T01:00:11;20.40;99.90
57106;DHT22;62662;56.788;23.942;2022-08-25T01:02:39;20.40;99.90
57106;DHT22;62662;56.788;23.942;2022-08-25T01:05:06;20.40;99.90
57106;DHT22;62662;56.788;23.942;2022-08-25T01:07:35;20.40;99.90
57106;DHT22;62662;56.788;23.942;2022-08-25T01:10:04;20.40;99.90
57106;DHT22;62662;56.788;23.942;2022-08-25T01:12:33;20.50;99.90
57106;DHT22;62662;56.788;23.942;2022-08-25T01:15:04;20.50;99.90
57106;DHT22;62662;56.788;23.942;2022-08-25T01:20:12;20.40;99.90
57106;DHT22;62662;56.788;23.942;2022-08-25T01:22:40;20.30;99.90
57106;DHT22;62662;56.788;23.942;2022-08-25T01:27:48;20.30;99.90
57106;DHT22;62662;56.788;23.942;2022-08-25T01:30:16;20.30;99.90
57106;DHT22;62662;56.788;23.942;2022-08-25T01:32:43;20.30;99.90
57106;DHT22;62662;56.788;23.942;2022-08-25T01:35:11;20.40;99.90
57106;DHT22;62662;56.788;23.942;2022-08-25T01:37:37;20.40;99.90
57106;DHT22;62662;56.788;23.942;2022-08-25T01:40:05;20.30;99.90
57106;DHT22;62662;56.788;23.942;2022-08-25T01:45:33;20.10;99.90
57106;DHT22;62662;56.788;23.942;2022-08-25T01:48:01;20.10;99.90
57106;DHT22;62662;56.788;23.942;2022-08-25T01:50:29;20.10;99.90
57106;DHT22;62662;56.788;23.942;2022-08-25T01:53:07;20.10;99.90
57106;DHT22;62662;56.788;23.942;2022-08-25T01:55:36;20.00;99.90
57106;DHT22;62662;56.788;23.942;2022-08-25T01:58:23;20.00;99.90
57106;DHT22;62662;56.788;23.942;2022-08-25T02:00:51;20.00;99.90
57106;DHT22;62662;56.788;23.942;2022-08-25T02:03:22;19.90;99.90
57106;DHT22;62662;56.788;23.942;2022-08-25T02:05:51;19.90;99.90
57106;DHT22;62662;56.788;23.942;2022-08-25T02:08:19;19.80;99.90
57106;DHT22;62662;56.788;23.942;2022-08-25T02:10:48;19.80;99.90
57106;DHT22;62662;56.788;23.942;2022-08-25T02:13:16;19.80;99.90
57106;DHT22;62662;56.788;23.942;2022-08-25T02:15:47;19.80;99.90
57106;DHT22;62662;56.788;23.942;2022-08-25T02:18:15;19.70;99.90
57106;DHT22;62662;56.788;23.942;2022-08-25T02:20:43;19.70;99.90
57106;DHT22;62662;56.788;23.942;2022-08-25T02:23:10;19.70;99.90
57106;DHT22;62662;56.788;23.942;2022-08-25T02:25:39;19.70;99.90
57106;DHT22;62662;56.788;23.942;2022-08-25T02:28:07;19.70;99.90
57106;DHT22;62662;56.788;23.942;2022-08-25T02:30:37;19.70;99.90
57106;DHT22;62662;56.788;23.942;2022-08-25T02:33:04;19.70;99.90
57106;DHT22;62662;56.788;23.942;2022-08-25T02:35:32;19.60;99.90
57106;DHT22;62662;56.788;23.942;2022-08-25T02:37:59;19.70;99.90
57106;DHT22;62662;56.788;23.942;2022-08-25T02:40:27;19.70;99.90
57106;DHT22;62662;56.788;23.942;2022-08-25T02:42:54;19.70;99.90
57106;DHT22;62662;56.788;23.942;2022-08-25T02:45:21;19.70;99.90
57106;DHT22;62662;56.788;23.942;2022-08-25T02:47:48;19.70;99.90
57106;DHT22;62662;56.788;23.942;2022-08-25T02:50:15;19.70;99.90
57106;DHT22;62662;56.788;23.942;2022-08-25T02:52:42;19.70;99.90
57106;DHT22;62662;56.788;23.942;2022-08-25T02:55:11;19.80;99.90
57106;DHT22;62662;56.788;23.942;2022-08-25T02:57:40;19.80;99.90
57106;DHT22;62662;56.788;23.942;2022-08-25T03:00:10;19.80;99.90
57106;DHT22;62662;56.788;23.942;2022-08-25T03:02:38;19.80;99.90
57106;DHT22;62662;56.788;23.942;2022-08-25T03:05:08;19.80;99.90
57106;DHT22;62662;56.788;23.942;2022-08-25T03:07:36;19.80;99.90
57106;DHT22;62662;56.788;23.942;2022-08-25T03:10:12;19.90;99.90
57106;DHT22;62662;56.788;23.942;2022-08-25T03:12:40;19.90;99.90
57106;DHT22;62662;56.788;23.942;2022-08-25T03:15:12;19.90;99.90
57106;DHT22;62662;56.788;23.942;2022-08-25T03:17:44;19.90;99.90
57106;DHT22;62662;56.788;23.942;2022-08-25T03:20:12;19.90;99.90
57106;DHT22;62662;56.788;23.942;2022-08-25T03:22:39;20.00;99.90
57106;DHT22;62662;56.788;23.942;2022-08-25T03:25:07;20.00;99.90
57106;DHT22;62662;56.788;23.942;2022-08-25T03:27:52;19.90;99.90
57106;DHT22;62662;56.788;23.942;2022-08-25T03:30:19;19.90;99.90
57106;DHT22;62662;56.788;23.942;2022-08-25T03:32:47;19.90;99.90
57106;DHT22;62662;56.788;23.942;2022-08-25T03:35:14;19.90;99.90
57106;DHT22;62662;56.788;23.942;2022-08-25T03:37:41;19.90;99.90
57106;DHT22;62662;56.788;23.942;2022-08-25T03:40:12;19.90;99.90
57106;DHT22;62662;56.788;23.942;2022-08-25T03:42:45;19.90;99.90
57106;DHT22;62662;56.788;23.942;2022-08-25T03:45:13;20.00;99.90
57106;DHT22;62662;56.788;23.942;2022-08-25T03:47:45;20.00;99.90
57106;DHT22;62662;56.788;23.942;2022-08-25T03:50:14;20.00;99.90
57106;DHT22;62662;56.788;23.942;2022-08-25T03:52:42;20.00;99.90
57106;DHT22;62662;56.788;23.942;2022-08-25T03:55:10;20.00;99.90
57106;DHT22;62662;56.788;23.942;2022-08-25T03:57:38;20.00;99.90
57106;DHT22;62662;56.788;23.942;2022-08-25T04:00:07;20.10;99.90
57106;DHT22;62662;56.788;23.942;2022-08-25T04:02:34;20.10;99.90
57106;DHT22;62662;56.788;23.942;2022-08-25T04:05:02;20.10;99.90
57106;DHT22;62662;56.788;23.942;2022-08-25T04:07:29;20.20;99.90
57106;DHT22;62662;56.788;23.942;2022-08-25T04:09:56;20.30;99.90
57106;DHT22;62662;56.788;23.942;2022-08-25T04:12:23;20.40;99.90
57106;DHT22;62662;56.788;23.942;2022-08-25T04:14:50;20.40;99.90
57106;DHT22;62662;56.788;23.942;2022-08-25T04:17:17;20.40;99.90
57106;DHT22;62662;56.788;23.942;2022-08-25T04:19:44;20.40;99.90
57106;DHT22;62662;56.788;23.942;2022-08-25T04:22:12;20.50;99.90
57106;DHT22;62662;56.788;23.942;2022-08-25T04:24:39;20.50;99.90
57106;DHT22;62662;56.788;23.942;2022-08-25T04:27:06;20.50;99.90
57106;DHT22;62662;56.788;23.942;2022-08-25T04:29:33;20.50;99.90
57106;DHT22;62662;56.788;23.942;2022-08-25T04:32:01;20.60;99.90
57106;DHT22;62662;56.788;23.942;2022-08-25T04:34:28;20.50;99.90
57106;DHT22;62662;56.788;23.942;2022-08-25T04:36:59;20.60;99.90
57106;DHT22;62662;56.788;23.942;2022-08-25T04:39:27;20.60;99.90
57106;DHT22;62662;56.788;23.942;2022-08-25T04:41:54;20.60;99.90
57106;DHT22;62662;56.788;23.942;2022-08-25T04:44:21;20.60;99.90
57106;DHT22;62662;56.788;23.942;2022-08-25T04:46:48;20.60;99.90
57106;DHT22;62662;56.788;23.942;2022-08-25T04:49:15;20.70;99.90
57106;DHT22;62662;56.788;23.942;2022-08-25T04:51:42;20.70;99.90
57106;DHT22;62662;56.788;23.942;2022-08-25T04:54:13;20.70;99.90
57106;DHT22;62662;56.788;23.942;2022-08-25T04:56:43;20.80;99.90
57106;DHT22;62662;56.788;23.942;2022-08-25T04:59:12;20.80;99.90
57106;DHT22;62662;56.788;23.942;2022-08-25T05:01:40;20.80;99.90
57106;DHT22;62662;56.788;23.942;2022-08-25T05:04:10;20.70;99.90
57106;DHT22;62662;56.788;23.942;2022-08-25T05:06:53;20.70;99.90
57106;DHT22;62662;56.788;23.942;2022-08-25T05:09:20;20.80;99.90
57106;DHT22;62662;56.788;23.942;2022-08-25T05:11:47;20.70;99.90
57106;DHT22;62662;56.788;23.942;2022-08-25T05:14:14;20.70;99.90
57106;DHT22;62662;56.788;23.942;2022-08-25T05:16:44;20.80;99.90
57106;DHT22;62662;56.788;23.942;2022-08-25T05:19:11;20.80;99.90
57106;DHT22;62662;56.788;23.942;2022-08-25T05:21:39;20.90;99.90
57106;DHT22;62662;56.788;23.942;2022-08-25T05:24:07;20.90;99.90
57106;DHT22;62662;56.788;23.942;2022-08-25T05:26:34;20.90;99.90
57106;DHT22;62662;56.788;23.942;2022-08-25T05:29:03;21.20;99.90
57106;DHT22;62662;56.788;23.942;2022-08-25T05:31:32;21.40;99.90
57106;DHT22;62662;56.788;23.942;2022-08-25T05:34:06;21.50;99.90
57106;DHT22;62662;56.788;23.942;2022-08-25T05:36:33;21.60;99.90
57106;DHT22;62662;56.788;23.942;2022-08-25T05:39:01;21.60;99.90
57106;DHT22;62662;56.788;23.942;2022-08-25T05:41:30;21.40;99.90
57106;DHT22;62662;56.788;23.942;2022-08-25T05:43:57;21.60;99.90
57106;DHT22;62662;56.788;23.942;2022-08-25T05:46:25;21.70;99.90
57106;DHT22;62662;56.788;23.942;2022-08-25T05:48:52;22.00;99.90
57106;DHT22;62662;56.788;23.942;2022-08-25T05:51:20;22.30;99.90
57106;DHT22;62662;56.788;23.942;2022-08-25T05:53:48;22.50;99.90
57106;DHT22;62662;56.788;23.942;2022-08-25T05:56:16;22.90;99.90
57106;DHT22;62662;56.788;23.942;2022-08-25T05:58:44;23.10;99.90
57106;DHT22;62662;56.788;23.942;2022-08-25T06:01:22;23.30;99.90
57106;DHT22;62662;56.788;23.942;2022-08-25T06:04:11;23.50;99.90
57106;DHT22;62662;56.788;23.942;2022-08-25T06:06:39;24.00;99.90
57106;DHT22;62662;56.788;23.942;2022-08-25T06:09:06;24.40;99.90
57106;DHT22;62662;56.788;23.942;2022-08-25T06:11:36;24.30;99.90
57106;DHT22;62662;56.788;23.942;2022-08-25T06:14:03;24.70;99.90
57106;DHT22;62662;56.788;23.942;2022-08-25T06:16:30;24.40;99.90
57106;DHT22;62662;56.788;23.942;2022-08-25T06:18:58;24.70;99.90
57106;DHT22;62662;56.788;23.942;2022-08-25T06:21:27;24.30;99.90
57106;DHT22;62662;56.788;23.942;2022-08-25T06:23:54;24.00;99.90
57106;DHT22;62662;56.788;23.942;2022-08-25T06:26:21;24.00;99.90
57106;DHT22;62662;56.788;23.942;2022-08-25T06:28:50;23.90;99.90
57106;DHT22;62662;56.788;23.942;2022-08-25T06:31:18;24.30;99.90
57106;DHT22;62662;56.788;23.942;2022-08-25T06:33:46;25.30;99.90
57106;DHT22;62662;56.788;23.942;2022-08-25T06:36:14;26.20;99.90
57106;DHT22;62662;56.788;23.942;2022-08-25T06:38:41;27.10;99.90
57106;DHT22;62662;56.788;23.942;2022-08-25T06:41:09;26.30;99.90
57106;DHT22;62662;56.788;23.942;2022-08-25T06:43:37;25.00;99.90
57106;DHT22;62662;56.788;23.942;2022-08-25T06:46:12;24.40;99.90
57106;DHT22;62662;56.788;23.942;2022-08-25T06:48:40;24.10;99.90
57106;DHT22;62662;56.788;23.942;2022-08-25T06:51:09;24.20;99.90
57106;DHT22;62662;56.788;23.942;2022-08-25T06:53:40;24.40;99.90
57106;DHT22;62662;56.788;23.942;2022-08-25T06:56:08;24.20;99.90
57106;DHT22;62662;56.788;23.942;2022-08-25T06:58:35;24.10;99.90
57106;DHT22;62662;56.788;23.942;2022-08-25T07:01:18;25.00;99.90
57106;DHT22;62662;56.788;23.942;2022-08-25T07:03:55;26.60;99.90
57106;DHT22;62662;56.788;23.942;2022-08-25T07:06:24;28.20;99.90
57106;DHT22;62662;56.788;23.942;2022-08-25T07:08:52;27.40;99.90
57106;DHT22;62662;56.788;23.942;2022-08-25T07:11:19;26.70;99.90
57106;DHT22;62662;56.788;23.942;2022-08-25T07:13:47;25.20;99.90
57106;DHT22;62662;56.788;23.942;2022-08-25T07:16:14;24.50;99.90
57106;DHT22;62662;56.788;23.942;2022-08-25T07:18:43;24.40;99.90
57106;DHT22;62662;56.788;23.942;2022-08-25T07:21:12;24.40;99.90
57106;DHT22;62662;56.788;23.942;2022-08-25T07:23:40;24.60;99.90
57106;DHT22;62662;56.788;23.942;2022-08-25T07:26:12;25.40;99.90
57106;DHT22;62662;56.788;23.942;2022-08-25T07:29:02;26.60;99.90
57106;DHT22;62662;56.788;23.942;2022-08-25T07:31:31;26.90;99.90
57106;DHT22;62662;56.788;23.942;2022-08-25T07:33:58;26.80;99.90
57106;DHT22;62662;56.788;23.942;2022-08-25T07:36:43;26.00;99.90
57106;DHT22;62662;56.788;23.942;2022-08-25T07:39:11;26.60;99.90
57106;DHT22;62662;56.788;23.942;2022-08-25T07:41:40;27.10;99.90
57106;DHT22;62662;56.788;23.942;2022-08-25T07:44:09;26.00;99.90
57106;DHT22;62662;56.788;23.942;2022-08-25T07:46:37;25.20;99.90
57106;DHT22;62662;56.788;23.942;2022-08-25T07:49:04;25.50;99.90
57106;DHT22;62662;56.788;23.942;2022-08-25T07:51:44;25.20;99.90
57106;DHT22;62662;56.788;23.942;2022-08-25T07:54:31;25.10;99.90
57106;DHT22;62662;56.788;23.942;2022-08-25T07:57:04;24.60;99.90
57106;DHT22;62662;56.788;23.942;2022-08-25T07:59:31;24.60;99.90
57106;DHT22;62662;56.788;23.942;2022-08-25T08:02:07;24.80;99.90
57106;DHT22;62662;56.788;23.942;2022-08-25T08:04:45;25.90;99.90
57106;DHT22;62662;56.788;23.942;2022-08-25T08:07:20;27.00;99.90
57106;DHT22;62662;56.788;23.942;2022-08-25T08:09:49;27.30;99.90
57106;DHT22;62662;56.788;23.942;2022-08-25T08:12:37;27.40;99.90
57106;DHT22;62662;56.788;23.942;2022-08-25T08:15:04;27.60;99.90
57106;DHT22;62662;56.788;23.942;2022-08-25T08:17:37;27.10;99.90
57106;DHT22;62662;56.788;23.942;2022-08-25T08:20:06;27.70;99.90
57106;DHT22;62662;56.788;23.942;2022-08-25T08:22:38;26.60;99.90
57106;DHT22;62662;56.788;23.942;2022-08-25T08:25:08;25.60;99.90
57106;DHT22;62662;56.788;23.942;2022-08-25T08:27:44;25.30;99.90
57106;DHT22;62662;56.788;23.942;2022-08-25T08:30:13;24.70;99.90
57106;DHT22;62662;56.788;23.942;2022-08-25T08:32:40;24.80;99.90
57106;DHT22;62662;56.788;23.942;2022-08-25T08:35:27;25.30;99.90
57106;DHT22;62662;56.788;23.942;2022-08-25T08:37:54;24.50;99.90
57106;DHT22;62662;56.788;23.942;2022-08-25T08:40:21;24.00;99.90
57106;DHT22;62662;56.788;23.942;2022-08-25T08:45:34;25.30;99.90
57106;DHT22;62662;56.788;23.942;2022-08-25T08:51:32;25.10;99.90
57106;DHT22;62662;56.788;23.942;2022-08-25T08:54:12;24.80;99.90
57106;DHT22;62662;56.788;23.942;2022-08-25T08:56:44;24.60;99.90
57106;DHT22;62662;56.788;23.942;2022-08-25T08:59:23;24.10;99.90
57106;DHT22;62662;56.788;23.942;2022-08-25T09:01:58;24.20;99.90
57106;DHT22;62662;56.788;23.942;2022-08-25T09:07:13;26.70;99.90
57106;DHT22;62662;56.788;23.942;2022-08-25T09:09:46;26.80;99.90
57106;DHT22;62662;56.788;23.942;2022-08-25T09:20:32;27.50;99.90
57106;DHT22;62662;56.788;23.942;2022-08-25T09:28:40;27.70;99.90
57106;DHT22;62662;56.788;23.942;2022-08-25T09:31:23;27.00;99.90
57106;DHT22;62662;56.788;23.942;2022-08-25T09:33:57;27.60;99.90
57106;DHT22;62662;56.788;23.942;2022-08-25T09:36:28;27.70;99.90
57106;DHT22;62662;56.788;23.942;2022-08-25T09:39:00;28.60;99.90
57106;DHT22;62662;56.788;23.942;2022-08-25T09:41:41;28.90;99.90
57106;DHT22;62662;56.788;23.942;2022-08-25T09:44:40;29.30;99.90
57106;DHT22;62662;56.788;23.942;2022-08-25T09:47:24;28.80;99.90
57106;DHT22;62662;56.788;23.942;2022-08-25T09:52:39;28.70;99.90
57106;DHT22;62662;56.788;23.942;2022-08-25T10:00:25;29.50;99.90
57106;DHT22;62662;56.788;23.942;2022-08-25T10:03:18;28.70;99.90
57106;DHT22;62662;56.788;23.942;2022-08-25T10:06:05;27.70;99.90
57106;DHT22;62662;56.788;23.942;2022-08-25T10:11:14;27.60;99.90
57106;DHT22;62662;56.788;23.942;2022-08-25T10:14:19;29.80;99.90
57106;DHT22;62662;56.788;23.942;2022-08-25T10:16:47;29.70;99.90
57106;DHT22;62662;56.788;23.942;2022-08-25T10:19:23;30.10;99.90
57106;DHT22;62662;56.788;23.942;2022-08-25T10:22:10;30.40;99.90
57106;DHT22;62662;56.788;23.942;2022-08-25T10:24:39;30.80;99.90
57106;DHT22;62662;56.788;23.942;2022-08-25T10:30:16;29.90;99.90
57106;DHT22;62662;56.788;23.942;2022-08-25T10:49:14;31.40;98.80
57106;DHT22;62662;56.788;23.942;2022-08-25T10:54:41;31.00;98.50
57106;DHT22;62662;56.788;23.942;2022-08-25T11:00:18;30.40;99.30
57106;DHT22;62662;56.788;23.942;2022-08-25T11:03:11;31.00;98.00
57106;DHT22;62662;56.788;23.942;2022-08-25T11:06:03;30.90;97.90
57106;DHT22;62662;56.788;23.942;2022-08-25T11:11:07;30.80;97.70
57106;DHT22;62662;56.788;23.942;2022-08-25T11:13:44;28.50;99.90
57106;DHT22;62662;56.788;23.942;2022-08-25T11:16:52;27.80;99.90
57106;DHT22;62662;56.788;23.942;2022-08-25T11:19:37;30.10;99.70
57106;DHT22;62662;56.788;23.942;2022-08-25T11:22:33;30.80;98.00
57106;DHT22;62662;56.788;23.942;2022-08-25T11:25:14;30.30;98.70
57106;DHT22;62662;56.788;23.942;2022-08-25T11:28:07;32.20;96.30
57106;DHT22;62662;56.788;23.942;2022-08-25T11:30:37;31.50;96.70
57106;DHT22;62662;56.788;23.942;2022-08-25T11:33:06;31.30;97.10
57106;DHT22;62662;56.788;23.942;2022-08-25T11:35:41;31.60;95.40
57106;DHT22;62662;56.788;23.942;2022-08-25T11:41:33;30.70;96.40
57106;DHT22;62662;56.788;23.942;2022-08-25T11:51:57;28.20;99.90
57106;DHT22;62662;56.788;23.942;2022-08-25T11:54:44;28.10;99.90
57106;DHT22;62662;56.788;23.942;2022-08-25T11:57:22;27.10;99.90
57106;DHT22;62662;56.788;23.942;2022-08-25T12:08:00;27.80;99.90
57106;DHT22;62662;56.788;23.942;2022-08-25T12:10:59;28.00;99.90
57106;DHT22;62662;56.788;23.942;2022-08-25T12:13:42;27.50;99.90
57106;DHT22;62662;56.788;23.942;2022-08-25T12:16:40;27.10;99.90
57106;DHT22;62662;56.788;23.942;2022-08-25T12:27:37;26.30;99.90
57106;DHT22;62662;56.788;23.942;2022-08-25T12:30:16;25.30;99.90
57106;DHT22;62662;56.788;23.942;2022-08-25T12:43:23;26.60;99.90
57106;DHT22;62662;56.788;23.942;2022-08-25T12:51:53;27.00;99.90
57106;DHT22;62662;56.788;23.942;2022-08-25T12:59:58;25.90;99.90
57106;DHT22;62662;56.788;23.942;2022-08-25T13:02:52;25.80;99.90
57106;DHT22;62662;56.788;23.942;2022-08-25T13:08:03;25.90;99.90
57106;DHT22;62662;56.788;23.942;2022-08-25T13:16:55;26.10;99.90
57106;DHT22;62662;56.788;23.942;2022-08-25T13:19:24;26.10;99.90
57106;DHT22;62662;56.788;23.942;2022-08-25T13:21:54;25.90;99.90
57106;DHT22;62662;56.788;23.942;2022-08-25T13:27:00;26.00;99.90
57106;DHT22;62662;56.788;23.942;2022-08-25T13:29:32;25.80;99.90
57106;DHT22;62662;56.788;23.942;2022-08-25T13:32:07;24.80;99.90
57106;DHT22;62662;56.788;23.942;2022-08-25T13:34:41;24.70;99.90
57106;DHT22;62662;56.788;23.942;2022-08-25T13:37:15;25.10;99.90
57106;DHT22;62662;56.788;23.942;2022-08-25T13:40:28;25.30;99.90
57106;DHT22;62662;56.788;23.942;2022-08-25T13:42:59;25.10;99.90
57106;DHT22;62662;56.788;23.942;2022-08-25T13:45:33;24.90;99.90
57106;DHT22;62662;56.788;23.942;2022-08-25T13:48:08;25.00;99.90
57106;DHT22;62662;56.788;23.942;2022-08-25T13:50:51;24.80;99.90
57106;DHT22;62662;56.788;23.942;2022-08-25T13:53:24;25.00;99.90
57106;DHT22;62662;56.788;23.942;2022-08-25T13:55:58;24.70;99.90
57106;DHT22;62662;56.788;23.942;2022-08-25T13:58:28;24.40;99.90
57106;DHT22;62662;56.788;23.942;2022-08-25T14:01:11;23.80;99.90
57106;DHT22;62662;56.788;23.942;2022-08-25T14:04:27;23.80;99.90
57106;DHT22;62662;56.788;23.942;2022-08-25T14:07:12;24.10;99.90
57106;DHT22;62662;56.788;23.942;2022-08-25T14:17:28;24.30;99.90
57106;DHT22;62662;56.788;23.942;2022-08-25T14:20:24;24.10;99.90
57106;DHT22;62662;56.788;23.942;2022-08-25T14:22:57;24.20;99.90
57106;DHT22;62662;56.788;23.942;2022-08-25T14:25:28;24.30;99.90
57106;DHT22;62662;56.788;23.942;2022-08-25T14:28:01;24.30;99.90
57106;DHT22;62662;56.788;23.942;2022-08-25T14:30:35;24.50;99.90
57106;DHT22;62662;56.788;23.942;2022-08-25T14:33:03;24.90;99.90
57106;DHT22;62662;56.788;23.942;2022-08-25T14:35:32;25.00;99.90
57106;DHT22;62662;56.788;23.942;2022-08-25T14:38:08;25.10;99.90
57106;DHT22;62662;56.788;23.942;2022-08-25T14:40:36;25.20;99.90
57106;DHT22;62662;56.788;23.942;2022-08-25T14:43:03;24.60;99.90
57106;DHT22;62662;56.788;23.942;2022-08-25T14:45:40;24.10;99.90
57106;DHT22;62662;56.788;23.942;2022-08-25T14:48:11;23.70;99.90
57106;DHT22;62662;56.788;23.942;2022-08-25T14:50:40;23.70;99.90
57106;DHT22;62662;56.788;23.942;2022-08-25T14:53:09;23.60;99.90
57106;DHT22;62662;56.788;23.942;2022-08-25T14:55:37;23.40;99.90
57106;DHT22;62662;56.788;23.942;2022-08-25T14:58:05;23.00;99.90
57106;DHT22;62662;56.788;23.942;2022-08-25T15:00:39;22.80;99.90
57106;DHT22;62662;56.788;23.942;2022-08-25T15:03:10;22.70;99.90
57106;DHT22;62662;56.788;23.942;2022-08-25T15:05:38;22.50;99.90
57106;DHT22;62662;56.788;23.942;2022-08-25T15:08:05;22.50;99.90
57106;DHT22;62662;56.788;23.942;2022-08-25T15:10:58;22.30;99.90
57106;DHT22;62662;56.788;23.942;2022-08-25T15:13:25;22.20;99.90
57106;DHT22;62662;56.788;23.942;2022-08-25T15:15:54;22.30;99.90
57106;DHT22;62662;56.788;23.942;2022-08-25T15:18:24;22.40;99.90
57106;DHT22;62662;56.788;23.942;2022-08-25T15:20:51;22.60;99.90
57106;DHT22;62662;56.788;23.942;2022-08-25T15:23:20;22.70;99.90
57106;DHT22;62662;56.788;23.942;2022-08-25T15:25:48;22.60;99.90
57106;DHT22;62662;56.788;23.942;2022-08-25T15:28:18;22.50;99.90
57106;DHT22;62662;56.788;23.942;2022-08-25T15:30:48;22.30;99.90
57106;DHT22;62662;56.788;23.942;2022-08-25T15:33:16;22.40;99.90
57106;DHT22;62662;56.788;23.942;2022-08-25T15:35:44;22.50;99.90
57106;DHT22;62662;56.788;23.942;2022-08-25T15:38:12;22.30;99.90
57106;DHT22;62662;56.788;23.942;2022-08-25T15:40:39;22.30;99.90
57106;DHT22;62662;56.788;23.942;2022-08-25T15:43:07;22.40;99.90
57106;DHT22;62662;56.788;23.942;2022-08-25T15:45:35;22.30;99.90
57106;DHT22;62662;56.788;23.942;2022-08-25T15:48:03;22.40;99.90
57106;DHT22;62662;56.788;23.942;2022-08-25T15:50:35;22.40;99.90
57106;DHT22;62662;56.788;23.942;2022-08-25T15:53:04;22.50;99.90
57106;DHT22;62662;56.788;23.942;2022-08-25T15:55:39;22.50;99.90
57106;DHT22;62662;56.788;23.942;2022-08-25T15:58:06;22.60;99.90
57106;DHT22;62662;56.788;23.942;2022-08-25T16:00:34;22.60;99.90
57106;DHT22;62662;56.788;23.942;2022-08-25T16:03:03;22.50;99.90
57106;DHT22;62662;56.788;23.942;2022-08-25T16:05:35;22.50;99.90
57106;DHT22;62662;56.788;23.942;2022-08-25T16:08:04;22.20;99.90
57106;DHT22;62662;56.788;23.942;2022-08-25T16:10:44;22.10;99.90
57106;DHT22;62662;56.788;23.942;2022-08-25T16:13:10;22.00;99.90
57106;DHT22;62662;56.788;23.942;2022-08-25T16:15:38;22.00;99.90
57106;DHT22;62662;56.788;23.942;2022-08-25T16:18:06;21.90;99.90
57106;DHT22;62662;56.788;23.942;2022-08-25T16:20:34;21.90;99.90
57106;DHT22;62662;56.788;23.942;2022-08-25T16:23:02;21.90;99.90
57106;DHT22;62662;56.788;23.942;2022-08-25T16:25:30;21.80;99.90
57106;DHT22;62662;56.788;23.942;2022-08-25T16:27:57;21.70;99.90
57106;DHT22;62662;56.788;23.942;2022-08-25T16:30:24;21.50;99.90
57106;DHT22;62662;56.788;23.942;2022-08-25T16:32:51;21.50;99.90
57106;DHT22;62662;56.788;23.942;2022-08-25T16:35:18;21.40;99.90
57106;DHT22;62662;56.788;23.942;2022-08-25T16:37:45;21.40;99.90
57106;DHT22;62662;56.788;23.942;2022-08-25T16:40:14;21.40;99.90
57106;DHT22;62662;56.788;23.942;2022-08-25T16:42:44;21.50;99.90
57106;DHT22;62662;56.788;23.942;2022-08-25T16:45:11;21.40;99.90
57106;DHT22;62662;56.788;23.942;2022-08-25T16:47:38;21.30;99.90
57106;DHT22;62662;56.788;23.942;2022-08-25T16:50:11;21.30;99.90
57106;DHT22;62662;56.788;23.942;2022-08-25T16:52:38;21.40;99.90
57106;DHT22;62662;56.788;23.942;2022-08-25T16:55:25;21.50;99.90
57106;DHT22;62662;56.788;23.942;2022-08-25T16:57:53;21.60;99.90
57106;DHT22;62662;56.788;23.942;2022-08-25T17:00:25;21.70;99.90
57106;DHT22;62662;56.788;23.942;2022-08-25T17:02:58;21.60;99.90
57106;DHT22;62662;56.788;23.942;2022-08-25T17:05:27;21.50;99.90
57106;DHT22;62662;56.788;23.942;2022-08-25T17:07:57;21.40;99.90
57106;DHT22;62662;56.788;23.942;2022-08-25T17:10:43;21.30;99.90
57106;DHT22;62662;56.788;23.942;2022-08-25T17:13:11;21.20;99.90
57106;DHT22;62662;56.788;23.942;2022-08-25T17:15:41;21.20;99.90
57106;DHT22;62662;56.788;23.942;2022-08-25T17:18:09;21.10;99.90
57106;DHT22;62662;56.788;23.942;2022-08-25T17:20:39;21.00;99.90
57106;DHT22;62662;56.788;23.942;2022-08-25T17:23:06;20.90;99.90
57106;DHT22;62662;56.788;23.942;2022-08-25T17:25:40;20.80;99.90
57106;DHT22;62662;56.788;23.942;2022-08-25T17:28:08;20.80;99.90
57106;DHT22;62662;56.788;23.942;2022-08-25T17:30:39;20.70;99.90
57106;DHT22;62662;56.788;23.942;2022-08-25T17:33:06;20.70;99.90
57106;DHT22;62662;56.788;23.942;2022-08-25T17:35:41;20.60;99.90
57106;DHT22;62662;56.788;23.942;2022-08-25T17:38:09;20.60;99.90
57106;DHT22;62662;56.788;23.942;2022-08-25T17:40:37;20.60;99.90
57106;DHT22;62662;56.788;23.942;2022-08-25T17:43:04;20.60;99.90
57106;DHT22;62662;56.788;23.942;2022-08-25T17:45:35;20.60;99.90
57106;DHT22;62662;56.788;23.942;2022-08-25T17:48:06;20.60;99.90
57106;DHT22;62662;56.788;23.942;2022-08-25T17:50:35;20.60;99.90
57106;DHT22;62662;56.788;23.942;2022-08-25T17:53:04;20.60;99.90
57106;DHT22;62662;56.788;23.942;2022-08-25T17:55:31;20.60;99.90
57106;DHT22;62662;56.788;23.942;2022-08-25T17:57:59;20.60;99.90
57106;DHT22;62662;56.788;23.942;2022-08-25T18:00:29;20.70;99.90